Time;durP1;ratioP1;P1;durP2;ratioP2;P2;SDS_P1;SDS_P2;PMS_P1;PMS_P2;Temp;Humidity;BMP_temperature;BMP_pressure;BME280_temperature;BME280_humidity;BME280_pressure;Samples;Min_cycle;Max_cycle;Signal;HPM_P1;HPM_P2
2023/12/04 00:01:58;;;;;;;16.63;12.02;;;3.10;96.10;;;;;;5034187;28;20086;-51
2023/12/04 00:04:24;;;;;;;15.77;12.05;;;3.00;96.10;;;;;;5033769;28;20030;-52
2023/12/04 00:06:49;;;;;;;17.23;11.88;;;3.00;96.00;;;;;;5015693;28;20029;-51
2023/12/04 00:09:15;;;;;;;18.83;12.50;;;3.00;96.20;;;;;;5033910;28;20036;-51
2023/12/04 00:11:41;;;;;;;15.63;11.50;;;3.00;96.10;;;;;;5033761;28;20033;-52
2023/12/04 00:14:07;;;;;;;17.80;13.48;;;3.00;96.10;;;;;;5033624;28;20025;-51
2023/12/04 00:16:35;;;;;;;17.63;12.43;;;3.00;96.20;;;;;;5032441;28;20032;-52
2023/12/04 00:19:01;;;;;;;20.20;13.45;;;3.00;96.30;;;;;;5033452;28;20172;-52
2023/12/04 00:21:27;;;;;;;18.33;12.68;;;2.90;96.30;;;;;;5033558;28;20056;-52
2023/12/04 00:23:52;;;;;;;18.63;12.45;;;3.10;99.90;;;;;;5033221;28;20029;-51
2023/12/04 00:26:18;;;;;;;18.65;11.38;;;2.90;96.40;;;;;;4998247;28;20049;-51
2023/12/04 00:28:44;;;;;;;17.58;12.48;;;3.00;96.30;;;;;;5033193;28;20520;-52
2023/12/04 00:31:10;;;;;;;18.10;11.93;;;3.00;96.10;;;;;;4998189;28;20133;-51
2023/12/04 00:33:36;;;;;;;16.55;11.63;;;3.00;96.20;;;;;;5033293;28;20029;-52
2023/12/04 00:36:02;;;;;;;16.55;11.93;;;3.00;96.30;;;;;;5033083;28;20087;-52
2023/12/04 00:38:28;;;;;;;16.40;12.48;;;2.90;96.40;;;;;;4965528;28;20072;-52
2023/12/04 00:40:54;;;;;;;20.48;14.65;;;2.80;96.60;;;;;;4981513;28;20065;-52
2023/12/04 00:43:20;;;;;;;43.35;25.40;;;2.80;96.70;;;;;;5033272;28;20064;-52
2023/12/04 00:45:45;;;;;;;20.63;14.23;;;2.80;96.80;;;;;;5032796;28;20063;-52
2023/12/04 00:48:11;;;;;;;14.20;10.73;;;2.90;96.90;;;;;;4997889;28;20045;-51
2023/12/04 00:50:37;;;;;;;12.82;9.73;;;2.90;96.90;;;;;;5033017;28;20029;-53
2023/12/04 00:53:04;;;;;;;15.52;10.35;;;2.90;96.80;;;;;;5014097;28;20057;-51
2023/12/04 00:55:29;;;;;;;37.00;27.27;;;2.90;96.70;;;;;;4998278;28;20175;-52
2023/12/04 00:57:55;;;;;;;44.95;30.65;;;2.90;96.50;;;;;;5032596;28;20087;-53
2023/12/04 01:00:21;;;;;;;43.47;26.75;;;2.80;96.60;;;;;;5032609;28;20029;-52
2023/12/04 01:02:47;;;;;;;23.77;16.63;;;2.90;96.70;;;;;;5032890;28;20032;-52
2023/12/04 01:05:13;;;;;;;16.15;10.80;;;2.90;96.70;;;;;;5032498;28;20061;-52
2023/12/04 01:07:38;;;;;;;14.05;10.15;;;2.90;96.50;;;;;;4997525;28;20053;-52
2023/12/04 01:10:05;;;;;;;14.75;10.23;;;2.90;96.50;;;;;;5032178;28;20028;-52
2023/12/04 01:12:30;;;;;;;15.13;11.90;;;2.90;96.50;;;;;;4997214;28;20133;-51
2023/12/04 01:14:56;;;;;;;12.93;9.90;;;2.90;96.50;;;;;;5032734;28;20520;-52
2023/12/04 01:17:22;;;;;;;18.42;12.68;;;2.90;96.40;;;;;;5032370;28;20409;-52
2023/12/04 01:19:48;;;;;;;15.38;11.52;;;2.90;96.40;;;;;;5032324;28;20033;-52
2023/12/04 01:22:13;;;;;;;16.50;11.10;;;2.90;96.50;;;;;;5032643;28;20033;-52
2023/12/04 01:24:39;;;;;;;17.02;10.75;;;2.90;96.70;;;;;;5032636;28;20053;-52
2023/12/04 01:27:05;;;;;;;16.25;11.77;;;2.80;96.70;;;;;;5032097;28;20081;-52
2023/12/04 01:29:31;;;;;;;20.05;14.18;;;2.80;96.80;;;;;;5032255;28;20029;-52
2023/12/04 01:31:57;;;;;;;27.42;19.67;;;2.70;96.90;;;;;;5009287;28;20057;-52
2023/12/04 01:34:23;;;;;;;32.33;21.73;;;2.70;97.00;;;;;;5052542;28;20039;-52
2023/12/04 01:36:49;;;;;;;34.85;23.20;;;2.70;97.00;;;;;;5052027;28;20051;-52
2023/12/04 01:39:14;;;;;;;42.67;27.70;;;2.70;96.80;;;;;;5051941;28;20021;-52
2023/12/04 01:41:40;;;;;;;38.00;24.83;;;2.70;96.90;;;;;;5052086;28;20025;-52
2023/12/04 01:44:06;;;;;;;35.85;22.77;;;2.70;96.80;;;;;;5032961;28;20039;-52
2023/12/04 01:46:32;;;;;;;44.40;25.30;;;2.60;96.80;;;;;;5052022;28;20362;-51
2023/12/04 01:48:59;;;;;;;73.97;39.28;;;;;;;;;;4983932;28;20553;-52
2023/12/04 01:51:26;;;;;;;58.90;31.77;;;;;;;;;;5000589;28;20060;-52
2023/12/04 01:53:53;;;;;;;36.85;24.02;;;1.70;99.90;;;;;;5051974;28;20032;-52
2023/12/04 01:56:20;;;;;;;44.50;25.25;;;2.30;97.40;;;;;;5051704;28;20100;-52
2023/12/04 01:58:45;;;;;;;49.08;24.70;;;2.30;97.40;;;;;;5032733;28;20144;-51
2023/12/04 02:01:12;;;;;;;26.90;18.05;;;2.40;97.20;;;;;;5051579;28;20025;-52
2023/12/04 02:03:37;;;;;;;23.80;16.70;;;2.40;97.20;;;;;;4999159;28;20574;-52
2023/12/04 02:06:05;;;;;;;34.97;26.00;;;2.50;97.10;;;;;;5051690;28;20025;-52
2023/12/04 02:08:31;;;;;;;30.52;23.38;;;2.40;97.00;;;;;;5000637;28;20044;-52
2023/12/04 02:10:56;;;;;;;25.70;17.67;;;2.50;97.00;;;;;;5051471;28;20055;-52
2023/12/04 02:13:23;;;;;;;25.17;13.95;;;2.50;97.00;;;;;;5050943;28;20039;-52
2023/12/04 02:15:52;;;;;;;19.02;13.38;;;2.60;96.80;;;;;;5051503;28;20036;-51
2023/12/04 02:18:18;;;;;;;21.02;15.57;;;2.50;96.80;;;;;;5051401;28;20099;-52
2023/12/04 02:20:44;;;;;;;22.23;16.13;;;2.50;97.10;;;;;;5051511;28;20017;-52
2023/12/04 02:23:09;;;;;;;23.90;15.88;;;2.50;96.80;;;;;;5051415;28;20037;-52
2023/12/04 02:25:36;;;;;;;31.20;21.08;;;2.50;96.90;;;;;;5051927;28;20025;-52
2023/12/04 02:28:06;;;;;;;45.03;28.55;;;2.50;97.00;;;;;;5051183;28;20048;-52
2023/12/04 02:30:36;;;;;;;32.67;21.27;;;2.40;97.00;;;;;;5016021;28;20036;-51
2023/12/04 02:33:05;;;;;;;25.20;17.83;;;2.40;97.20;;;;;;5051444;28;20044;-52
2023/12/04 02:35:34;;;;;;;22.98;15.82;;;2.50;97.30;;;;;;5032624;28;20397;-52
2023/12/04 02:38:03;;;;;;;38.95;24.30;;;2.50;97.10;;;;;;5015952;28;20026;-52
2023/12/04 02:40:29;;;;;;;59.95;39.63;;;2.50;97.00;;;;;;5054036;28;20025;-52
2023/12/04 02:42:55;;;;;;;46.28;27.80;;;2.40;97.10;;;;;;5055194;28;20059;-51
2023/12/04 02:45:21;;;;;;;27.55;20.15;;;2.40;97.20;;;;;;5003200;28;20439;-51
2023/12/04 02:47:47;;;;;;;18.95;14.05;;;2.40;97.20;;;;;;5054890;28;20044;-51
2023/12/04 02:50:12;;;;;;;19.80;13.07;;;2.40;97.30;;;;;;5055031;28;20041;-51
2023/12/04 02:52:38;;;;;;;21.23;13.48;;;2.40;97.30;;;;;;5054932;28;20029;-52
2023/12/04 02:55:04;;;;;;;21.23;16.02;;;2.40;97.30;;;;;;5055155;28;20100;-51
2023/12/04 02:57:30;;;;;;;26.42;18.02;;;2.40;97.40;;;;;;5036294;28;20045;-51
2023/12/04 02:59:56;;;;;;;30.88;20.98;;;2.30;97.20;;;;;;5054870;28;20067;-51
2023/12/04 03:02:22;;;;;;;28.75;20.48;;;2.40;97.30;;;;;;5036068;28;20037;-51
2023/12/04 03:04:47;;;;;;;27.40;18.15;;;2.30;97.40;;;;;;5054845;28;20381;-51
2023/12/04 03:07:13;;;;;;;32.15;22.23;;;2.30;97.30;;;;;;5055076;28;20057;-51
2023/12/04 03:09:39;;;;;;;28.42;19.85;;;2.30;97.40;;;;;;5054814;28;20025;-51
2023/12/04 03:12:05;;;;;;;31.20;18.92;;;2.20;97.40;;;;;;5035871;28;20048;-52
2023/12/04 03:14:31;;;;;;;28.05;18.30;;;2.20;97.50;;;;;;5054753;28;20032;-51
2023/12/04 03:16:56;;;;;;;43.40;27.88;;;2.20;97.80;;;;;;5054488;28;20025;-52
2023/12/04 03:19:22;;;;;;;39.80;24.83;;;2.20;97.40;;;;;;5054950;28;20049;-51
2023/12/04 03:21:48;;;;;;;32.67;20.40;;;2.10;97.40;;;;;;5054358;28;20095;-51
2023/12/04 03:24:13;;;;;;;27.42;17.90;;;2.10;97.40;;;;;;5035538;28;20044;-51
2023/12/04 03:26:41;;;;;;;27.38;17.48;;;2.10;97.30;;;;;;5054196;28;20021;-51
2023/12/04 03:29:06;;;;;;;30.15;17.80;;;2.10;97.40;;;;;;5054557;28;20036;-52
2023/12/04 03:31:34;;;;;;;69.03;36.75;;;2.10;97.50;;;;;;5054129;28;20049;-51
2023/12/04 03:33:59;;;;;;;69.93;41.45;;;1.90;97.40;;;;;;5035840;28;20127;-51
2023/12/04 03:36:25;;;;;;;27.83;17.95;;;1.70;97.90;;;;;;5054122;28;20059;-51
2023/12/04 03:38:51;;;;;;;23.58;15.43;;;1.40;98.00;;;;;;5035286;28;20446;-51
2023/12/04 03:41:17;;;;;;;22.15;14.32;;;1.20;99.90;;;;;;5053933;28;20029;-51
2023/12/04 03:43:43;;;;;;;21.48;16.17;;;0.70;99.90;;;;;;5054057;28;20060;-51
2023/12/04 03:46:09;;;;;;;23.92;16.92;;;0.60;99.90;;;;;;5053948;28;20060;-52
2023/12/04 03:48:34;;;;;;;19.95;12.77;;;0.90;99.90;;;;;;5054067;28;20033;-51
2023/12/04 03:51:00;;;;;;;14.60;10.85;;;1.00;99.90;;;;;;5053934;28;20025;-51
2023/12/04 03:53:26;;;;;;;18.95;11.57;;;0.50;99.90;;;;;;5053755;28;20048;-51
2023/12/04 03:55:52;;;;;;;16.00;11.63;;;0.20;99.90;;;;;;5053838;28;20057;-51
2023/12/04 03:58:18;;;;;;;15.43;10.77;;;0.40;99.90;;;;;;5053658;28;20061;-51
2023/12/04 04:00:44;;;;;;;16.73;12.27;;;0.60;99.90;;;;;;5053702;28;20029;-51
2023/12/04 04:03:10;;;;;;;15.90;11.45;;;0.30;99.90;;;;;;5053973;28;20033;-52
2023/12/04 04:05:36;;;;;;;16.30;12.18;;;0.30;99.90;;;;;;5053589;28;20389;-51
2023/12/04 04:08:02;;;;;;;15.52;10.35;;;0.60;99.90;;;;;;5030986;28;20056;-52
2023/12/04 04:10:28;;;;;;;17.10;10.45;;;0.60;99.90;;;;;;5031262;28;20071;-51
2023/12/04 04:12:53;;;;;;;14.65;10.35;;;0.50;99.90;;;;;;5031215;28;20065;-51
2023/12/04 04:15:19;;;;;;;12.90;9.65;;;0.20;99.90;;;;;;5031057;28;20030;-51
2023/12/04 04:17:45;;;;;;;14.32;10.52;;;0.30;99.90;;;;;;5008820;28;20041;-51
2023/12/04 04:20:12;;;;;;;19.20;11.85;;;0.20;99.90;;;;;;5031091;28;20421;-51
2023/12/04 04:22:40;;;;;;;14.25;9.43;;;0.40;99.90;;;;;;5030877;28;20045;-51
2023/12/04 04:25:07;;;;;;;13.93;8.38;;;0.40;99.90;;;;;;5031116;28;20098;-51
2023/12/04 04:27:33;;;;;;;14.07;9.02;;;-0.10;99.90;;;;;;5014039;28;20499;-51
2023/12/04 04:29:59;;;;;;;13.65;9.50;;;-0.40;99.90;;;;;;5030926;28;20036;-51
2023/12/04 04:32:25;;;;;;;14.50;10.80;;;-0.70;99.90;;;;;;5046770;28;20060;-51
2023/12/04 04:34:50;;;;;;;20.45;14.88;;;-0.90;99.90;;;;;;5029018;28;20548;-51
2023/12/04 04:37:16;;;;;;;19.17;13.55;;;-1.00;99.90;;;;;;5010941;28;20025;-52
2023/12/04 04:39:42;;;;;;;18.83;11.82;;;-1.00;99.90;;;;;;5028212;28;20440;-51
2023/12/04 04:42:08;;;;;;;15.48;10.98;;;-1.10;99.90;;;;;;5014296;28;20037;-51
2023/12/04 04:44:33;;;;;;;16.00;10.90;;;-1.40;99.90;;;;;;5041472;28;20025;-51
2023/12/04 04:46:59;;;;;;;19.50;13.65;;;-1.30;99.90;;;;;;5052641;28;20037;-51
2023/12/04 04:49:25;;;;;;;19.10;11.38;;;-1.10;99.90;;;;;;5052639;28;20032;-51
2023/12/04 04:51:51;;;;;;;16.02;11.68;;;-1.10;99.90;;;;;;5053076;28;20104;-51
2023/12/04 04:54:16;;;;;;;22.27;12.13;;;-0.90;99.90;;;;;;5047141;28;20033;-51
2023/12/04 04:56:42;;;;;;;18.55;11.00;;;-0.80;99.90;;;;;;5014122;28;20041;-51
2023/12/04 04:59:08;;;;;;;23.27;13.25;;;-1.40;99.90;;;;;;5030673;28;20083;-51
2023/12/04 05:01:33;;;;;;;21.13;12.45;;;-1.40;99.90;;;;;;5032277;28;20052;-51
2023/12/04 05:03:59;;;;;;;20.48;11.90;;;-1.60;99.90;;;;;;5032310;28;20068;-51
2023/12/04 05:06:25;;;;;;;14.52;9.75;;;-1.60;99.90;;;;;;5013795;28;20033;-51
2023/12/04 05:08:52;;;;;;;14.60;10.32;;;-1.40;99.90;;;;;;5032417;28;20531;-51
2023/12/04 05:11:18;;;;;;;17.10;10.68;;;-1.40;99.90;;;;;;5032477;28;20034;-50
2023/12/04 05:13:45;;;;;;;15.65;9.93;;;-1.40;99.90;;;;;;5038843;28;20059;-51
2023/12/04 05:16:11;;;;;;;15.93;10.82;;;-1.30;99.90;;;;;;5052697;28;20032;-51
2023/12/04 05:18:38;;;;;;;14.60;10.38;;;-1.20;99.90;;;;;;5017064;28;20025;-51
2023/12/04 05:21:11;;;;;;;14.77;10.32;;;-1.10;99.90;;;;;;5052402;28;20033;-50
2023/12/04 05:23:38;;;;;;;15.32;9.88;;;-1.00;99.90;;;;;;5033896;28;20033;-51
2023/12/04 05:26:05;;;;;;;14.55;10.75;;;-1.10;99.90;;;;;;5052414;28;20029;-51
2023/12/04 05:28:31;;;;;;;13.68;9.40;;;-1.00;99.90;;;;;;5051309;28;20037;-51
2023/12/04 05:30:57;;;;;;;14.65;10.13;;;-1.10;99.90;;;;;;5052059;28;20063;-51
2023/12/04 05:33:22;;;;;;;14.02;10.07;;;-1.10;99.90;;;;;;5052343;28;20057;-51
2023/12/04 05:35:48;;;;;;;13.52;10.32;;;-1.00;99.90;;;;;;5052456;28;20025;-50
2023/12/04 05:38:14;;;;;;;15.00;10.85;;;-1.00;99.90;;;;;;5031500;28;20033;-51
2023/12/04 05:40:40;;;;;;;17.38;11.48;;;-0.90;99.90;;;;;;5050290;28;20044;-51
2023/12/04 05:43:06;;;;;;;17.33;11.55;;;-0.90;99.90;;;;;;5052381;28;20045;-51
2023/12/04 05:45:31;;;;;;;17.30;11.50;;;-1.00;99.90;;;;;;5051820;28;20472;-51
2023/12/04 05:47:57;;;;;;;16.42;10.77;;;-1.00;99.90;;;;;;5052150;28;20044;-51
2023/12/04 05:50:23;;;;;;;15.10;10.60;;;-1.00;99.90;;;;;;5051782;28;20115;-51
2023/12/04 05:52:48;;;;;;;16.73;10.85;;;-1.10;99.90;;;;;;5016385;28;20033;-51
2023/12/04 05:55:15;;;;;;;16.42;10.50;;;-1.10;99.90;;;;;;5016619;28;20043;-51
2023/12/04 05:57:40;;;;;;;15.02;10.32;;;-1.10;99.90;;;;;;5039711;28;20033;-51
2023/12/04 06:00:16;;;;;;;15.82;11.00;;;-1.30;99.90;;;;;;5052085;28;20100;-51
2023/12/04 06:02:43;;;;;;;15.57;9.70;;;-1.20;99.90;;;;;;5016300;28;20508;-51
2023/12/04 06:05:09;;;;;;;15.48;10.55;;;-1.30;99.90;;;;;;5051714;28;20032;-51
2023/12/04 06:07:36;;;;;;;16.40;11.27;;;-1.40;99.90;;;;;;5051629;28;20056;-51
2023/12/04 06:10:04;;;;;;;20.60;14.35;;;-1.30;99.90;;;;;;5051007;28;20480;-50
2023/12/04 06:12:30;;;;;;;23.10;14.43;;;-1.30;99.90;;;;;;5047951;28;20035;-51
2023/12/04 06:14:58;;;;;;;16.92;11.15;;;-1.10;99.90;;;;;;5043824;28;20025;-51
2023/12/04 06:17:24;;;;;;;21.05;12.45;;;-1.10;99.90;;;;;;5044289;28;20030;-51
2023/12/04 06:19:49;;;;;;;25.98;16.05;;;-1.30;99.90;;;;;;5027188;28;20036;-51
2023/12/04 06:22:18;;;;;;;25.10;15.40;;;-1.30;99.90;;;;;;5045935;28;20037;-51
2023/12/04 06:24:44;;;;;;;24.15;15.57;;;-1.20;99.90;;;;;;5044419;28;20029;-51
2023/12/04 06:27:16;;;;;;;24.52;16.08;;;-1.10;99.90;;;;;;5055679;28;20053;-51
2023/12/04 06:29:42;;;;;;;18.67;12.60;;;-1.00;99.90;;;;;;5055241;28;20025;-51
2023/12/04 06:32:08;;;;;;;21.80;13.40;;;-1.20;99.90;;;;;;5050542;28;20389;-51
2023/12/04 06:34:34;;;;;;;19.00;11.65;;;-1.20;99.90;;;;;;5019362;28;20068;-51
2023/12/04 06:37:02;;;;;;;16.52;12.63;;;-0.40;99.90;;;;;;5018763;28;20592;-51
2023/12/04 06:39:32;;;;;;;18.52;11.43;;;1.20;99.90;;;;;;5002849;28;20120;-51
2023/12/04 06:41:58;;;;;;;15.88;11.80;;;;;;;;;;5055157;28;20055;-51
2023/12/04 06:44:24;;;;;;;14.95;11.27;;;5.30;99.90;;;;;;5055066;28;20063;-51
2023/12/04 06:46:52;;;;;;;16.33;11.18;;;;;;;;;;5050396;28;20030;-52
2023/12/04 06:49:18;;;;;;;16.02;11.90;;;8.80;92.80;;;;;;5041868;28;20044;-52
2023/12/04 06:51:44;;;;;;;16.40;12.80;;;;;;;;;;5026490;28;20195;-52
2023/12/04 06:54:11;;;;;;;18.38;11.25;;;8.90;98.60;;;;;;5044250;28;20042;-52
2023/12/04 06:56:38;;;;;;;16.23;12.38;;;;;;;;;;5043559;28;20373;-53
2023/12/04 06:59:04;;;;;;;16.73;11.93;;;7.50;89.70;;;;;;5012118;28;20049;-52
2023/12/04 07:01:30;;;;;;;18.30;14.65;;;7.60;90.00;;;;;;5012207;28;20437;-52
2023/12/04 07:03:56;;;;;;;24.05;17.85;;;;;;;;;;5012068;28;20156;-52
2023/12/04 07:06:22;;;;;;;20.35;16.00;;;;;;;;;;5012009;28;20049;-51
2023/12/04 07:08:49;;;;;;;19.73;15.20;;;;;;;;;;4979131;28;20049;-52
2023/12/04 07:11:16;;;;;;;18.45;15.18;;;;;;;;;;5012035;28;20034;-52
2023/12/04 07:13:42;;;;;;;21.35;15.40;;;;;;;;;;5012057;28;20042;-52
2023/12/04 07:16:09;;;;;;;23.20;18.85;;;;;;;;;;5012442;28;20107;-53
2023/12/04 07:18:34;;;;;;;26.98;19.52;;;14.80;79.30;;;;;;4995879;28;20088;-53
2023/12/04 07:21:01;;;;;;;28.40;21.15;;;;;;;;;;5012267;28;20030;-53
2023/12/04 07:23:26;;;;;;;25.90;19.83;;;16.50;77.40;;;;;;5011877;28;20509;-53
2023/12/04 07:25:52;;;;;;;23.63;19.13;;;17.50;77.50;;;;;;5007635;28;20069;-53
2023/12/04 07:28:18;;;;;;;28.50;19.58;;;17.00;75.40;;;;;;5018011;28;20038;-53
2023/12/04 07:30:43;;;;;;;;;;;17.50;74.70;;;;;;5039681;28;20127;-52
2023/12/04 07:33:09;;;;;;;;;;;18.00;74.60;;;;;;5054247;28;19912;-52
2023/12/04 07:35:35;;;;;;;;;;;;;;;;;;5054099;28;19904;-52
2023/12/04 07:38:01;;;;;;;;;;;19.60;72.30;;;;;;5051848;28;19909;-50
2023/12/04 07:40:26;;;;;;;;;;;18.90;70.60;;;;;;5052882;28;19935;-52
2023/12/04 07:42:52;;;;;;;;;;;19.10;71.20;;;;;;5042510;28;20371;-49
2023/12/04 07:45:18;;;;;;;;;;;;;;;;;;5040570;28;20328;-49
2023/12/04 07:47:43;;;;;;;;;;;16.70;70.30;;;;;;5051931;28;19961;-49
2023/12/04 07:50:09;;;;;;;;;;;18.00;71.70;;;;;;5052938;28;20031;-50
2023/12/04 07:52:35;;;;;;;;;;;16.40;72.30;;;;;;5018092;28;19918;-49
2023/12/04 07:55:00;;;;;;;;;;;17.10;72.30;;;;;;5052330;28;20022;-51
2023/12/04 07:57:26;;;;;;;;;;;16.20;72.30;;;;;;5053328;28;19905;-50
2023/12/04 07:59:53;;;;;;;;;;;17.90;72.70;;;;;;5051456;28;20321;-51
2023/12/04 08:02:18;;;;;;;;;;;17.20;70.50;;;;;;5051658;28;20284;-52
2023/12/04 08:04:44;;;;;;;;;;;15.90;70.50;;;;;;5042436;28;19921;-51
2023/12/04 08:07:09;;;;;;;;;;;15.60;71.60;;;;;;5025060;28;19920;-50
2023/12/04 08:09:35;;;;;;;;;;;15.20;71.80;;;;;;5052331;28;19923;-52
2023/12/04 08:12:01;;;;;;;;;;;15.30;73.00;;;;;;5049101;28;20016;-51
2023/12/04 08:14:27;;;;;;;;;;;14.60;72.60;;;;;;5049200;28;19920;-51
2023/12/04 08:16:53;;;;;;;;;;;16.90;73.60;;;;;;5039831;28;20011;-54
2023/12/04 08:19:19;;;;;;;;;;;;;;;;;;5042087;28;20018;-50
2023/12/04 08:21:46;;;;;;;;;;;;;;;;;;5045776;28;19909;-51
2023/12/04 08:24:11;;;;;;;;;;;20.30;69.10;;;;;;5030586;28;19905;-52
2023/12/04 08:26:37;;;;;;;;;;;20.20;68.80;;;;;;5026831;28;20406;-51
2023/12/04 08:29:03;;;;;;;;;;;18.90;74.90;;;;;;5026042;28;19978;-51
2023/12/04 08:31:28;;;;;;;;;;;;;;;;;;5030941;28;19964;-51
2023/12/04 08:33:54;;;;;;;;;;;;;;;;;;5031240;28;19922;-51
2023/12/04 08:36:20;;;;;;;;;;;20.80;68.40;;;;;;5030709;28;19931;-51
2023/12/04 08:38:46;;;;;;;;;;;20.40;67.10;;;;;;4997507;28;20397;-51
2023/12/04 08:41:12;;;;;;;;;;;19.40;68.10;;;;;;5031014;28;19972;-51
2023/12/04 08:43:37;;;;;;;;;;;19.30;67.20;;;;;;5031041;28;19975;-52
2023/12/04 08:46:03;;;;;;;;;;;;;;;;;;5031115;28;19923;-51
2023/12/04 08:48:29;;;;;;;;;;;20.60;67.60;;;;;;5047473;28;19967;-51
2023/12/04 08:50:56;;;;;;;;;;;;;;;;;;5053138;28;19911;-51
2023/12/04 08:53:22;;;;;;;;;;;;;;;;;;5048758;28;20023;-51
2023/12/04 08:55:47;;;;;;;;;;;22.40;66.20;;;;;;5049912;28;20007;-51
2023/12/04 08:58:13;;;;;;;;;;;;;;;;;;5019619;28;19999;-51
2023/12/04 09:00:42;;;;;;;22.53;20.23;;;23.50;65.10;;;;;;5050937;28;20899;-52
2023/12/04 09:03:10;;;;;;;24.80;22.20;;;;;;;;;;5058084;28;20636;-51
2023/12/04 09:05:37;;;;;;;19.88;17.77;;;;;;;;;;5053289;28;20029;-51
2023/12/04 09:08:03;;;;;;;18.08;16.30;;;23.50;64.00;;;;;;5050941;28;20039;-50
2023/12/04 09:10:29;;;;;;;41.22;28.58;;;;;;;;;;5055393;28;20037;-51
2023/12/04 09:12:55;;;;;;;27.85;21.77;;;23.80;63.70;;;;;;5054876;28;20025;-51
2023/12/04 09:15:20;;;;;;;29.20;20.90;;;24.00;63.90;;;;;;5034536;28;20392;-51
2023/12/04 09:17:46;;;;;;;25.95;19.42;;;23.60;63.10;;;;;;5057353;28;20052;-51
2023/12/04 09:20:12;;;;;;;17.17;15.38;;;23.30;63.70;;;;;;5052435;28;20029;-53
2023/12/04 09:22:38;;;;;;;18.73;16.67;;;22.10;63.80;;;;;;5049986;28;20024;-53
2023/12/04 09:25:08;;;;;;;23.20;19.58;;;23.10;64.10;;;;;;5058400;28;20119;-51
2023/12/04 09:27:34;;;;;;;14.73;13.18;;;23.40;63.60;;;;;;4969222;28;20053;-51
2023/12/04 09:30:00;;;;;;;16.65;15.05;;;22.80;63.60;;;;;;5052809;28;20044;-51
2023/12/04 09:32:26;;;;;;;15.13;13.52;;;22.10;63.10;;;;;;5039494;28;20048;-51
2023/12/04 09:34:52;;;;;;;20.75;18.88;;;22.00;63.80;;;;;;5016659;28;20032;-51
2023/12/04 09:37:17;;;;;;;22.10;19.98;;;20.60;62.50;;;;;;5052044;28;20619;-51
2023/12/04 09:39:43;;;;;;;18.55;16.73;;;20.60;63.10;;;;;;5020355;28;20033;-51
2023/12/04 09:42:10;;;;;;;16.77;15.13;;;20.80;63.70;;;;;;5056807;28;20028;-51
2023/12/04 09:44:37;;;;;;;16.73;15.23;;;21.90;64.20;;;;;;5052839;28;20141;-51
2023/12/04 09:47:04;;;;;;;16.35;14.80;;;21.50;92.80;;;;;;5053656;28;20476;-51
2023/12/04 09:49:31;;;;;;;15.68;14.18;;;21.70;70.90;;;;;;4984111;28;20119;-51
2023/12/04 09:52:02;;;;;;;15.88;14.25;;;;;;;;;;5052327;28;20029;-51
2023/12/04 09:54:29;;;;;;;12.57;11.37;;;22.70;63.40;;;;;;5056763;28;20055;-51
2023/12/04 09:56:56;;;;;;;16.80;15.02;;;;;;;;;;5055004;28;20036;-51
2023/12/04 09:59:25;;;;;;;13.35;11.98;;;;;;;;;;5051771;28;20033;-51
2023/12/04 10:01:51;;;;;;;11.13;10.02;;;22.10;82.20;;;;;;5055559;28;20033;-51
2023/12/04 10:04:17;;;;;;;12.05;10.75;;;21.40;62.90;;;;;;5005311;28;20037;-51
2023/12/04 10:06:45;;;;;;;10.70;9.77;;;21.30;63.50;;;;;;5048685;28;20017;-51
2023/12/04 10:09:13;;;;;;;8.13;7.40;;;21.50;62.90;;;;;;5053757;28;20025;-51
2023/12/04 10:11:42;;;;;;;9.18;8.30;;;22.00;62.70;;;;;;5016867;28;20076;-51
2023/12/04 10:14:18;;;;;;;12.13;10.98;;;;;;;;;;5006094;28;20033;-51
2023/12/04 10:16:44;;;;;;;10.65;8.75;;;;;;;;;;5050596;28;20052;-52
2023/12/04 10:19:17;;;;;;;10.68;9.65;;;;;;;;;;5045994;28;20025;-51
2023/12/04 10:21:45;;;;;;;13.63;11.40;;;21.60;71.30;;;;;;5045266;28;20094;-51
2023/12/04 10:24:11;;;;;;;10.95;9.95;;;;;;;;;;5008158;28;20068;-54
2023/12/04 10:26:37;;;;;;;11.13;9.85;;;;;;;;;;5053211;28;20029;-51
2023/12/04 10:29:05;;;;;;;10.32;9.30;;;20.20;62.10;;;;;;5058910;28;20025;-51
2023/12/04 10:31:34;;;;;;;10.57;9.23;;;20.20;63.60;;;;;;5064271;28;20060;-51
2023/12/04 10:34:00;;;;;;;9.52;7.88;;;;;;;;;;5051405;28;20040;-51
2023/12/04 10:36:26;;;;;;;11.52;9.65;;;;;;;;;;5051484;28;20023;-51
2023/12/04 10:39:04;;;;;;;10.57;9.43;;;18.80;64.40;;;;;;5053658;28;20036;-51
2023/12/04 10:41:34;;;;;;;11.07;9.57;;;;;;;;;;5049837;28;20033;-52
2023/12/04 10:44:00;;;;;;;9.68;8.77;;;17.80;64.90;;;;;;5041423;28;20116;-51
2023/12/04 10:46:27;;;;;;;9.57;8.40;;;18.10;65.80;;;;;;5058366;28;20024;-51
2023/12/04 10:48:53;;;;;;;8.65;7.43;;;18.20;65.30;;;;;;5050147;28;20116;-51
2023/12/04 10:51:21;;;;;;;8.07;7.22;;;17.00;65.40;;;;;;5044411;28;20436;-51
2023/12/04 10:53:47;;;;;;;9.27;8.30;;;16.00;66.30;;;;;;5055140;28;20087;-51
2023/12/04 10:56:25;;;;;;;9.27;8.25;;;16.50;66.90;;;;;;5052022;28;20435;-51
2023/12/04 10:58:52;;;;;;;10.10;8.43;;;16.30;69.00;;;;;;5054623;28;20060;-51
2023/12/04 11:01:23;;;;;;;12.07;9.38;;;16.70;72.10;;;;;;5054145;28;20025;-51
2023/12/04 11:03:54;;;;;;;8.63;7.73;;;16.50;72.20;;;;;;5057041;28;20037;-51
2023/12/04 11:06:20;;;;;;;9.13;7.45;;;;;;;;;;5058732;28;20032;-51
2023/12/04 11:08:48;;;;;;;11.73;10.05;;;16.50;93.50;;;;;;5053448;28;20045;-51
2023/12/04 11:11:19;;;;;;;7.85;6.72;;;14.60;67.20;;;;;;5061042;28;20537;-51
2023/12/04 11:13:50;;;;;;;11.77;9.50;;;14.70;67.10;;;;;;5045532;28;20108;-49
2023/12/04 11:16:42;;;;;;;6.73;6.00;;;14.70;67.50;;;;;;5036699;28;20108;-49
2023/12/04 11:19:27;;;;;;;5.72;5.20;;;;;;;;;;5055379;28;20031;-49
2023/12/04 11:21:56;;;;;;;8.00;7.20;;;14.20;66.80;;;;;;5061160;28;20043;-48
2023/12/04 11:24:22;;;;;;;11.50;6.70;;;14.60;68.10;;;;;;5056615;28;20418;-48
2023/12/04 11:26:49;;;;;;;7.95;7.05;;;14.40;67.90;;;;;;5053166;28;20029;-49
2023/12/04 11:29:16;;;;;;;9.68;7.28;;;14.80;68.30;;;;;;5055531;28;20049;-48
2023/12/04 11:31:42;;;;;;;9.43;6.80;;;14.10;68.00;;;;;;5017274;28;20492;-49
2023/12/04 11:34:11;;;;;;;7.25;5.88;;;14.10;68.40;;;;;;5055681;28;20074;-49
2023/12/04 11:36:37;;;;;;;9.32;7.03;;;13.60;67.10;;;;;;5054912;28;20538;-51
2023/12/04 11:39:03;;;;;;;6.97;6.28;;;14.80;67.80;;;;;;5049152;28;20370;-49
2023/12/04 11:41:30;;;;;;;10.63;7.53;;;;;;;;;;5055975;28;20039;-50
2023/12/04 11:43:56;;;;;;;8.55;6.55;;;13.90;68.40;;;;;;5046422;28;20087;-49
2023/12/04 11:46:24;;;;;;;9.05;6.60;;;13.70;69.30;;;;;;5046333;28;20029;-50
2023/12/04 11:48:53;;;;;;;9.88;8.43;;;13.80;70.50;;;;;;5014708;28;20072;-50
2023/12/04 11:51:47;;;;;;;7.32;5.68;;;13.90;70.80;;;;;;5050193;28;20081;-49
2023/12/04 11:54:17;;;;;;;10.75;6.43;;;;;;;;;;5049040;28;20082;-49
2023/12/04 11:57:10;;;;;;;8.60;6.65;;;12.50;70.00;;;;;;5030597;28;20043;-51
2023/12/04 11:59:39;;;;;;;10.15;8.05;;;12.70;70.70;;;;;;5051692;28;20115;-52
2023/12/04 12:02:08;;;;;;;6.75;5.97;;;12.70;71.40;;;;;;5047938;28;20492;-50
2023/12/04 12:04:34;;;;;;;6.63;5.88;;;12.40;70.40;;;;;;5054650;28;20702;-50
2023/12/04 12:07:03;;;;;;;10.35;7.28;;;12.40;70.20;;;;;;5033321;28;20052;-49
2023/12/04 12:09:30;;;;;;;9.63;6.32;;;12.40;70.40;;;;;;5057450;28;20054;-49
2023/12/04 12:11:56;;;;;;;8.32;6.22;;;12.00;70.50;;;;;;5057895;28;20024;-49
2023/12/04 12:14:22;;;;;;;9.43;5.60;;;11.90;70.50;;;;;;5059319;28;20610;-52
2023/12/04 12:16:48;;;;;;;8.00;7.13;;;11.30;71.10;;;;;;5055074;28;20120;-52
2023/12/04 12:19:14;;;;;;;7.75;6.22;;;11.10;71.40;;;;;;5004762;28;20227;-51
2023/12/04 12:21:40;;;;;;;9.45;7.53;;;11.10;72.10;;;;;;5057457;28;20547;-51
2023/12/04 12:24:06;;;;;;;8.35;6.68;;;10.80;71.60;;;;;;5052719;28;20109;-51
2023/12/04 12:26:33;;;;;;;6.97;5.82;;;10.80;72.30;;;;;;5058662;28;20020;-52
2023/12/04 12:28:58;;;;;;;7.90;6.15;;;10.40;72.10;;;;;;5027776;28;20041;-52
2023/12/04 12:31:24;;;;;;;7.78;6.18;;;10.30;72.60;;;;;;5050001;28;20051;-51
2023/12/04 12:33:51;;;;;;;9.20;6.32;;;9.90;72.50;;;;;;5055164;28;20024;-51
2023/12/04 12:36:17;;;;;;;8.52;5.93;;;9.30;74.20;;;;;;5056747;28;20037;-51
2023/12/04 12:38:49;;;;;;;14.25;7.93;;;9.10;74.20;;;;;;5037290;28;20025;-52
2023/12/04 12:41:20;;;;;;;9.75;7.57;;;9.30;75.40;;;;;;5056378;28;20404;-53
2023/12/04 12:43:47;;;;;;;10.60;7.75;;;9.60;75.10;;;;;;5021554;28;20094;-51
2023/12/04 12:46:13;;;;;;;10.40;7.70;;;9.50;74.90;;;;;;5052297;28;20392;-51
2023/12/04 12:48:39;;;;;;;12.35;8.52;;;9.80;75.00;;;;;;5054610;28;20045;-51
2023/12/04 12:51:07;;;;;;;12.23;8.95;;;9.90;75.60;;;;;;5055073;28;20025;-52
2023/12/04 12:53:33;;;;;;;13.60;9.70;;;9.40;75.50;;;;;;5056989;28;20028;-51
2023/12/04 12:56:01;;;;;;;13.63;10.07;;;9.20;76.00;;;;;;5056993;28;20052;-51
2023/12/04 12:58:27;;;;;;;15.00;10.88;;;9.10;77.00;;;;;;5051035;28;20033;-51